Time;durP1;ratioP1;P1;durP2;ratioP2;P2;SDS_P1;SDS_P2;PMS_P1;PMS_P2;Temp;Humidity;BMP_temperature;BMP_pressure;BME280_temperature;BME280_humidity;BME280_pressure;Samples;Min_cycle;Max_cycle;Signal;HPM_P1;HPM_P2
2023/04/17 00:01:22;;;;;;;35.92;20.80;;;;;;;8.09;99.87;102708.88;4999014;28;20046;-77
2023/04/17 00:03:47;;;;;;;37.63;21.95;;;;;;;8.07;99.98;102708.88;4997154;28;20077;-77
2023/04/17 00:06:13;;;;;;;40.42;22.17;;;;;;;8.03;100.00;102701.06;4999070;28;20485;-77
2023/04/17 00:08:39;;;;;;;39.65;21.33;;;;;;;7.98;100.00;102702.81;4998601;28;20234;-77
2023/04/17 00:11:05;;;;;;;39.60;21.52;;;;;;;7.91;100.00;102703.69;4989062;28;20215;-77
2023/04/17 00:13:30;;;;;;;40.35;20.25;;;;;;;7.91;100.00;102701.06;4998193;28;20041;-78
2023/04/17 00:15:56;;;;;;;33.20;20.73;;;;;;;7.90;100.00;102702.81;4989831;28;20053;-78
2023/04/17 00:18:21;;;;;;;38.10;20.65;;;;;;;7.91;100.00;102696.72;4996326;28;20030;-77
2023/04/17 00:20:46;;;;;;;32.33;20.15;;;;;;;7.89;100.00;102695.84;4995668;28;20233;-78
2023/04/17 00:23:12;;;;;;;42.10;23.60;;;;;;;7.90;100.00;102702.81;4996004;28;20223;-78
2023/04/17 00:25:37;;;;;;;34.33;20.38;;;;;;;7.91;100.00;102698.47;4997249;28;20034;-78
2023/04/17 00:28:02;;;;;;;35.20;20.30;;;;;;;7.92;100.00;102697.59;4994125;28;20057;-78
2023/04/17 00:30:28;;;;;;;37.30;21.52;;;;;;;7.93;100.00;102697.63;4998353;28;20030;-78
2023/04/17 00:32:53;;;;;;;38.78;20.33;;;;;;;7.92;100.00;102695.84;4996218;28;20029;-78
2023/04/17 00:35:18;;;;;;;40.63;22.10;;;;;;;7.95;100.00;102701.09;4998623;28;20273;-78
2023/04/17 00:37:44;;;;;;;32.60;18.88;;;;;;;7.95;100.00;102703.69;4996954;28;20050;-77
2023/04/17 00:40:10;;;;;;;31.40;18.98;;;;;;;7.97;100.00;102694.13;4997353;28;20046;-78
2023/04/17 00:42:35;;;;;;;37.72;20.90;;;;;;;7.95;100.00;102695.88;4998127;28;20085;-78
2023/04/17 00:45:01;;;;;;;35.10;19.40;;;;;;;7.97;100.00;102698.47;4998804;28;20042;-77
2023/04/17 00:47:26;;;;;;;33.10;19.17;;;;;;;7.97;100.00;102698.47;4968435;28;20034;-77
2023/04/17 00:49:52;;;;;;;42.97;20.25;;;;;;;7.92;100.00;102693.25;4998311;28;20081;-77
2023/04/17 00:52:27;;;;;;;32.15;20.10;;;;;;;7.92;100.00;102697.59;4987510;28;20202;-77
2023/04/17 00:54:53;;;;;;;28.00;17.52;;;;;;;7.93;100.00;102692.41;4988585;28;20030;-78
2023/04/17 00:57:19;;;;;;;35.97;19.08;;;;;;;7.95;100.00;102702.81;4995894;28;20092;-78
2023/04/17 00:59:46;;;;;;;35.63;20.83;;;;;;;7.94;100.00;102701.06;4997883;28;20153;-78
2023/04/17 01:02:11;;;;;;;36.83;20.90;;;;;;;7.92;100.00;102700.22;4989286;28;20049;-77
2023/04/17 01:04:37;;;;;;;33.42;20.00;;;;;;;7.93;100.00;102700.22;4997095;28;20046;-78
2023/04/17 01:07:02;;;;;;;31.63;20.55;;;;;;;7.94;100.00;102694.13;4997040;28;20041;-78
2023/04/17 01:09:28;;;;;;;36.65;21.00;;;;;;;7.90;100.00;102696.75;4996236;28;20038;-78
2023/04/17 01:11:53;;;;;;;46.50;23.05;;;;;;;7.85;100.00;102707.16;4997446;28;20045;-78
2023/04/17 01:14:19;;;;;;;31.98;19.63;;;;;;;7.80;100.00;102699.31;4998596;28;20050;-77
2023/04/17 01:16:44;;;;;;;40.53;21.85;;;;;;;7.79;100.00;102699.34;4997446;28;20302;-78
2023/04/17 01:19:13;;;;;;;34.13;20.38;;;;;;;7.79;100.00;102700.19;4998658;28;20329;-77
2023/04/17 01:21:38;;;;;;;34.85;21.00;;;;;;;7.79;100.00;102699.34;4994454;28;20034;-78
2023/04/17 01:24:04;;;;;;;48.13;23.10;;;;;;;7.79;100.00;102707.16;4998311;28;20337;-78
2023/04/17 01:26:31;;;;;;;42.75;22.58;;;;;;;7.79;100.00;102704.56;4996537;28;20214;-77
2023/04/17 01:28:58;;;;;;;37.55;20.85;;;;;;;7.79;100.00;102708.03;4998018;28;20113;-78
2023/04/17 01:31:26;;;;;;;39.10;20.80;;;;;;;7.80;100.00;102701.91;4996538;28;20033;-78
2023/04/17 01:33:51;;;;;;;35.13;19.88;;;;;;;7.81;100.00;102705.44;4996784;28;20057;-78
2023/04/17 01:36:18;;;;;;;34.10;20.25;;;;;;;7.79;100.00;102702.81;4997794;28;20046;-78
2023/04/17 01:38:44;;;;;;;31.67;18.92;;;;;;;7.82;100.00;102699.31;4997900;28;20042;-77
2023/04/17 01:41:09;;;;;;;37.80;20.90;;;;;;;7.85;100.00;102705.41;4997675;28;20137;-77
2023/04/17 01:43:40;;;;;;;38.30;21.92;;;;;;;7.85;100.00;102700.19;4997788;28;20038;-77
2023/04/17 01:46:05;;;;;;;42.28;22.85;;;;;;;7.83;100.00;102703.69;4997420;28;20053;-78
2023/04/17 01:48:32;;;;;;;42.92;23.42;;;;;;;7.80;100.00;102707.13;4997998;28;20249;-77
2023/04/17 01:50:57;;;;;;;44.88;22.17;;;;;;;7.77;100.00;102704.56;4998163;28;20030;-78
2023/04/17 01:53:22;;;;;;;44.90;24.08;;;;;;;7.76;100.00;102694.13;4972349;28;20035;-78
2023/04/17 01:55:48;;;;;;;41.42;21.23;;;;;;;7.76;100.00;102694.97;4995954;28;20069;-77
2023/04/17 01:58:13;;;;;;;48.28;24.77;;;;;;;7.76;100.00;102696.72;4997325;28;20034;-77
2023/04/17 02:00:39;;;;;;;45.42;24.77;;;;;;;7.75;100.00;102693.25;4996572;28;20142;-78
2023/04/17 02:03:04;;;;;;;43.38;23.65;;;;;;;7.75;100.00;102694.97;4994445;28;20342;-78
2023/04/17 02:05:30;;;;;;;49.95;25.92;;;;;;;7.75;100.00;102698.47;5001135;28;20289;-77
2023/04/17 02:07:55;;;;;;;40.05;21.63;;;;;;;7.77;100.00;102703.69;4996805;28;20449;-77
2023/04/17 02:10:21;;;;;;;39.70;21.25;;;;;;;7.79;100.00;102704.56;4996747;28;20033;-77
2023/04/17 02:12:46;;;;;;;42.78;23.75;;;;;;;7.80;100.00;102701.06;4997250;28;20045;-77
2023/04/17 02:15:11;;;;;;;37.58;20.90;;;;;;;7.81;100.00;102693.25;5001376;28;20045;-77
2023/04/17 02:17:37;;;;;;;49.80;24.00;;;;;;;7.82;100.00;102696.72;5001045;28;20054;-78
2023/04/17 02:20:05;;;;;;;38.47;22.10;;;;;;;7.81;100.00;102695.84;5000858;28;20372;-77
2023/04/17 02:22:31;;;;;;;46.50;23.70;;;;;;;7.82;100.00;102694.09;5000987;28;20050;-77
2023/04/17 02:24:56;;;;;;;38.42;21.83;;;;;;;7.80;100.00;102699.31;5000482;28;20048;-77
2023/04/17 02:27:21;;;;;;;39.40;21.52;;;;;;;7.81;100.00;102698.47;5001074;28;20050;-78
2023/04/17 02:29:47;;;;;;;50.45;23.80;;;;;;;7.83;100.00;102682.81;4998311;28;20049;-77
2023/04/17 02:32:14;;;;;;;43.58;23.13;;;;;;;7.83;100.00;102693.25;4996656;28;20042;-78
2023/04/17 02:34:40;;;;;;;40.75;21.00;;;;;;;7.84;100.00;102689.75;5000350;28;20046;-78
2023/04/17 02:37:05;;;;;;;35.53;20.70;;;;;;;7.85;100.00;102684.53;5000437;28;20053;-77
2023/04/17 02:39:32;;;;;;;40.95;22.90;;;;;;;7.86;100.00;102694.13;5001066;28;20081;-78
2023/04/17 02:41:57;;;;;;;40.05;21.83;;;;;;;7.85;100.00;102687.16;4995757;28;20043;-77
2023/04/17 02:44:23;;;;;;;47.15;24.55;;;;;;;7.82;100.00;102689.78;4999172;28;20089;-78
2023/04/17 02:46:48;;;;;;;45.40;23.58;;;;;;;7.78;100.00;102693.22;4999850;28;20038;-78
2023/04/17 02:49:14;;;;;;;35.58;21.15;;;;;;;7.75;100.00;102695.88;4999385;28;20145;-78
2023/04/17 02:51:39;;;;;;;36.05;20.95;;;;;;;7.73;100.00;102694.09;4999950;28;20038;-78
2023/04/17 02:54:05;;;;;;;40.63;20.98;;;;;;;7.68;100.00;102688.91;4999478;28;20038;-77
2023/04/17 02:56:30;;;;;;;42.25;22.55;;;;;;;7.64;100.00;102690.63;5000202;28;20385;-78
2023/04/17 02:58:56;;;;;;;46.67;23.70;;;;;;;7.61;100.00;102690.63;5000457;28;20295;-78
2023/04/17 03:01:22;;;;;;;40.47;21.67;;;;;;;7.60;100.00;102694.09;5000504;28;20297;-77
2023/04/17 03:03:47;;;;;;;34.30;20.25;;;;;;;7.62;100.00;102694.09;4996686;28;20114;-77
2023/04/17 03:06:13;;;;;;;43.30;22.52;;;;;;;7.65;100.00;102688.88;5000314;28;20038;-78
2023/04/17 03:08:38;;;;;;;38.78;21.15;;;;;;;7.67;100.00;102690.63;4995457;28;20046;-77
2023/04/17 03:11:05;;;;;;;42.67;22.00;;;;;;;7.65;100.00;102687.13;5000671;28;20050;-77
2023/04/17 03:13:33;;;;;;;39.78;22.13;;;;;;;7.63;100.00;102696.69;4998095;28;20225;-77
2023/04/17 03:16:00;;;;;;;35.60;20.38;;;;;;;7.62;100.00;102694.97;5000109;28;20042;-78
2023/04/17 03:18:25;;;;;;;35.28;20.08;;;;;;;7.64;100.00;102685.41;5000514;28;20044;-77
2023/04/17 03:20:51;;;;;;;33.05;19.25;;;;;;;7.65;100.00;102689.75;4999321;28;20037;-78
2023/04/17 03:23:17;;;;;;;36.88;21.40;;;;;;;7.67;100.00;102690.63;4991109;28;20045;-77
2023/04/17 03:25:42;;;;;;;45.90;22.80;;;;;;;7.68;100.00;102692.38;4998985;28;20038;-77
2023/04/17 03:28:08;;;;;;;38.55;21.65;;;;;;;7.68;100.00;102683.69;4999836;28;20045;-77
2023/04/17 03:30:33;;;;;;;39.20;21.48;;;;;;;7.68;100.00;102689.75;4999555;28;20109;-77
2023/04/17 03:32:59;;;;;;;39.85;21.42;;;;;;;7.69;100.00;102688.91;4998633;28;20042;-78
2023/04/17 03:35:24;;;;;;;36.83;19.33;;;;;;;7.69;100.00;102691.50;5000133;28;20285;-77
2023/04/17 03:37:50;;;;;;;36.78;20.20;;;;;;;7.70;100.00;102694.97;4995821;28;20252;-78
2023/04/17 03:40:15;;;;;;;30.50;18.85;;;;;;;7.67;100.00;102692.34;4999464;28;20269;-78
2023/04/17 03:42:41;;;;;;;33.65;18.98;;;;;;;7.67;100.00;102695.81;4996750;28;20034;-77
2023/04/17 03:45:07;;;;;;;37.08;19.88;;;;;;;7.67;100.00;102695.81;4999684;28;20061;-77
2023/04/17 03:47:32;;;;;;;30.13;17.63;;;;;;;7.68;100.00;102701.94;4997694;28;20042;-77
2023/04/17 03:49:57;;;;;;;38.50;18.92;;;;;;;7.65;100.00;102700.19;4999605;28;20038;-78
2023/04/17 03:52:23;;;;;;;32.42;18.63;;;;;;;7.66;100.00;102708.88;4996786;28;20121;-77
2023/04/17 03:54:48;;;;;;;31.42;18.15;;;;;;;7.66;100.00;102703.69;4965005;28;20217;-77
2023/04/17 03:57:14;;;;;;;35.03;18.45;;;;;;;7.63;100.00;102696.69;4981664;28;20345;-77
2023/04/17 03:59:39;;;;;;;33.05;18.30;;;;;;;7.60;100.00;102704.50;4981360;28;20364;-78
2023/04/17 04:02:05;;;;;;;28.55;17.42;;;;;;;7.59;100.00;102701.94;4997608;28;20249;-78
2023/04/17 04:04:30;;;;;;;36.33;19.05;;;;;;;7.59;100.00;102696.72;4990918;28;20388;-77
2023/04/17 04:07:00;;;;;;;29.77;18.00;;;;;;;7.59;100.00;102704.53;4993930;28;20053;-77
2023/04/17 04:09:25;;;;;;;29.15;17.35;;;;;;;7.60;100.00;102701.03;4989559;28;20034;-77
2023/04/17 04:11:51;;;;;;;32.80;18.65;;;;;;;7.61;100.00;102700.19;4993999;28;20057;-77
2023/04/17 04:14:16;;;;;;;31.27;18.25;;;;;;;7.63;100.00;102701.06;4995045;28;20285;-77
2023/04/17 04:16:42;;;;;;;26.20;15.90;;;;;;;7.64;100.00;102695.84;4996557;28;20038;-77
2023/04/17 04:19:07;;;;;;;30.83;18.27;;;;;;;7.64;100.00;102702.78;4996347;28;20042;-77
2023/04/17 04:21:33;;;;;;;29.60;18.73;;;;;;;7.65;100.00;102701.91;4997631;28;20034;-77
2023/04/17 04:23:59;;;;;;;28.55;17.35;;;;;;;7.66;100.00;102701.06;4998430;28;20054;-77
2023/04/17 04:26:26;;;;;;;29.90;16.95;;;;;;;7.65;100.00;102696.72;4997313;28;20448;-77
2023/04/17 04:28:51;;;;;;;30.85;17.20;;;;;;;7.67;100.00;102705.41;4997860;28;20030;-77
2023/04/17 04:31:19;;;;;;;33.78;19.08;;;;;;;7.69;100.00;102693.22;4997132;28;20102;-78
2023/04/17 04:33:45;;;;;;;25.63;17.50;;;;;;;7.69;100.00;102704.56;4988876;28;20072;-78
2023/04/17 04:36:12;;;;;;;34.63;19.65;;;;;;;7.68;100.00;102712.38;4990146;28;20313;-77
2023/04/17 04:38:38;;;;;;;33.60;19.20;;;;;;;7.66;100.00;102708.88;4993469;28;20396;-77
2023/04/17 04:41:09;;;;;;;35.47;19.52;;;;;;;7.66;100.00;102708.88;4997643;28;20269;-77
2023/04/17 04:43:35;;;;;;;27.38;18.27;;;;;;;7.68;100.00;102712.38;4988977;28;20396;-77
2023/04/17 04:46:01;;;;;;;30.60;17.30;;;;;;;7.67;100.00;102713.22;4997941;28;20049;-78
2023/04/17 04:48:27;;;;;;;26.17;16.90;;;;;;;7.67;100.00;102724.50;4995466;28;20225;-78
2023/04/17 04:50:54;;;;;;;26.50;15.65;;;;;;;7.67;100.00;102721.03;4995414;28;20064;-77
2023/04/17 04:53:19;;;;;;;29.70;17.45;;;;;;;7.65;100.00;102725.41;4995646;28;20109;-77
2023/04/17 04:55:45;;;;;;;32.20;18.88;;;;;;;7.61;100.00;102721.91;4993383;28;20349;-77
2023/04/17 04:58:10;;;;;;;25.65;17.10;;;;;;;7.58;100.00;102727.09;4991015;28;20050;-77
2023/04/17 05:00:35;;;;;;;36.10;19.15;;;;;;;7.58;100.00;102726.25;4994073;28;20049;-78
2023/04/17 05:03:01;;;;;;;31.35;17.20;;;;;;;7.59;100.00;102725.41;4993274;28;20210;-77
2023/04/17 05:05:27;;;;;;;34.70;18.30;;;;;;;7.61;100.00;102724.53;4986759;28;20050;-77
2023/04/17 05:07:53;;;;;;;33.92;18.27;;;;;;;7.61;100.00;102724.53;4985640;28;20073;-78
2023/04/17 05:10:19;;;;;;;34.65;18.13;;;;;;;7.61;100.00;102727.13;4987419;28;20321;-77
2023/04/17 05:12:45;;;;;;;32.15;17.55;;;;;;;7.62;100.00;102733.19;4996603;28;20054;-77
2023/04/17 05:15:10;;;;;;;31.98;17.08;;;;;;;7.62;100.00;102736.69;4996793;28;20049;-77
2023/04/17 05:17:36;;;;;;;25.88;15.50;;;;;;;7.63;100.00;102737.56;4996811;28;20065;-77
2023/04/17 05:20:05;;;;;;;25.40;14.82;;;;;;;7.60;100.00;102742.75;4986413;28;20163;-77
2023/04/17 05:22:31;;;;;;;27.77;16.25;;;;;;;7.60;100.00;102747.97;4981176;28;20117;-77
2023/04/17 05:24:56;;;;;;;24.55;15.30;;;;;;;7.59;100.00;102746.25;4995380;28;20154;-77
2023/04/17 05:27:22;;;;;;;27.08;14.80;;;;;;;7.60;100.00;102750.59;4997079;28;20038;-77
2023/04/17 05:29:47;;;;;;;38.20;17.95;;;;;;;7.60;100.00;102755.81;4987249;28;20037;-77
2023/04/17 05:32:13;;;;;;;29.85;17.38;;;;;;;7.59;100.00;102746.25;4979297;28;20027;-77
2023/04/17 05:34:38;;;;;;;33.55;18.38;;;;;;;7.60;100.00;102748.84;4995945;28;20061;-78
2023/04/17 05:37:03;;;;;;;29.13;17.10;;;;;;;7.58;100.00;102750.56;4995852;28;20030;-78
2023/04/17 05:39:29;;;;;;;38.60;18.38;;;;;;;7.58;100.00;102750.56;5001153;28;20395;-77
2023/04/17 05:41:55;;;;;;;32.85;18.90;;;;;;;7.60;100.00;102754.06;4999481;28;20046;-77
2023/04/17 05:44:20;;;;;;;33.17;17.88;;;;;;;7.61;100.00;102754.94;5002117;28;20040;-77
2023/04/17 05:46:46;;;;;;;31.88;17.92;;;;;;;7.61;100.00;102754.94;5001728;28;20038;-77
2023/04/17 05:49:11;;;;;;;31.75;17.70;;;;;;;7.61;100.00;102747.13;5002294;28;20101;-77
2023/04/17 05:51:36;;;;;;;31.23;17.58;;;;;;;7.62;100.00;102754.06;5002168;28;20038;-77
2023/04/17 05:54:02;;;;;;;26.05;16.60;;;;;;;7.61;100.00;102752.34;4981720;28;20047;-77
2023/04/17 05:56:27;;;;;;;26.88;16.13;;;;;;;7.63;100.00;102754.06;4997085;28;20042;-77
2023/04/17 05:58:53;;;;;;;30.55;17.35;;;;;;;7.63;100.00;102755.81;5000461;28;20052;-77
2023/04/17 06:01:21;;;;;;;32.42;17.63;;;;;;;7.63;100.00;102750.59;5001678;28;20042;-77
2023/04/17 06:03:47;;;;;;;28.50;17.23;;;;;;;7.64;100.00;102747.09;5000337;28;20050;-77
2023/04/17 06:06:12;;;;;;;33.50;18.48;;;;;;;7.62;100.00;102754.97;5001809;28;20064;-77
2023/04/17 06:08:38;;;;;;;27.45;17.30;;;;;;;7.63;100.00;102756.69;4999926;28;20416;-77
2023/04/17 06:11:05;;;;;;;25.15;16.75;;;;;;;7.65;100.00;102760.16;5000293;28;20108;-77
2023/04/17 06:13:31;;;;;;;23.73;15.25;;;;;;;7.66;100.00;102761.91;5000216;28;20042;-78
2023/04/17 06:15:57;;;;;;;28.83;17.25;;;;;;;7.69;100.00;102767.16;5001064;28;20046;-77
2023/04/17 06:18:22;;;;;;;27.58;16.67;;;;;;;7.70;100.00;102765.41;4998410;28;20376;-77
2023/04/17 06:20:48;;;;;;;26.58;16.38;;;;;;;7.71;100.00;102768.88;5000715;28;20098;-77
2023/04/17 06:23:13;;;;;;;31.95;18.65;;;;;;;7.68;100.00;102770.59;4995072;28;20057;-77
2023/04/17 06:25:39;;;;;;;29.80;17.58;;;;;;;7.71;100.00;102771.47;4999594;28;20429;-78
2023/04/17 06:28:04;;;;;;;31.70;17.77;;;;;;;7.70;100.00;102770.63;4995409;28;20315;-77
2023/04/17 06:30:30;;;;;;;36.65;18.48;;;;;;;7.68;100.00;102761.91;4996825;28;20280;-77
2023/04/17 06:32:55;;;;;;;28.60;17.13;;;;;;;7.70;100.00;102765.41;5000547;28;20097;-77
2023/04/17 06:35:21;;;;;;;34.35;19.60;;;;;;;7.71;100.00;102759.28;5000940;28;20085;-77
2023/04/17 06:37:46;;;;;;;37.17;19.20;;;;;;;7.74;100.00;102763.66;5000523;28;20072;-77
2023/04/17 06:40:12;;;;;;;26.38;17.33;;;;;;;7.77;100.00;102764.53;5000867;28;20046;-77
2023/04/17 06:42:37;;;;;;;31.38;18.83;;;;;;;7.78;100.00;102768.88;5000415;28;20046;-77
2023/04/17 06:45:03;;;;;;;34.97;18.27;;;;;;;7.79;100.00;102778.44;5000818;28;20233;-77
2023/04/17 06:47:29;;;;;;;28.50;18.45;;;;;;;7.81;100.00;102775.84;5001107;28;20068;-77
2023/04/17 06:49:56;;;;;;;30.40;17.63;;;;;;;7.82;100.00;102783.69;4999847;28;20050;-77
2023/04/17 06:52:22;;;;;;;26.33;17.08;;;;;;;7.82;100.00;102782.78;5001158;28;20336;-77
2023/04/17 06:54:47;;;;;;;27.98;18.17;;;;;;;7.83;100.00;102790.63;5000149;28;20038;-77
2023/04/17 06:57:13;;;;;;;29.13;16.95;;;;;;;7.84;100.00;102799.31;5000686;28;20057;-77
2023/04/17 06:59:39;;;;;;;26.27;17.15;;;;;;;7.83;100.00;102788.00;4982437;28;20269;-77
2023/04/17 07:02:04;;;;;;;29.00;17.55;;;;;;;7.84;100.00;102795.00;5000523;28;20302;-77
2023/04/17 07:04:30;;;;;;;24.88;16.98;;;;;;;7.83;100.00;102798.44;5000487;28;20046;-77
2023/04/17 07:06:56;;;;;;;26.42;17.00;;;;;;;7.84;100.00;102802.81;4999876;28;20088;-77
2023/04/17 07:09:21;;;;;;;27.80;17.92;;;;;;;7.86;100.00;102808.03;5000241;28;20117;-77
2023/04/17 07:11:46;;;;;;;27.63;17.48;;;;;;;7.86;100.00;102801.06;5000327;28;20042;-77
2023/04/17 07:14:12;;;;;;;28.38;18.00;;;;;;;7.86;100.00;102795.84;5000371;28;20042;-77
2023/04/17 07:16:37;;;;;;;32.53;18.38;;;;;;;7.86;100.00;102802.81;4999850;28;20053;-77
2023/04/17 07:19:03;;;;;;;34.78;19.15;;;;;;;7.87;100.00;102802.81;5000523;28;20105;-77
2023/04/17 07:21:28;;;;;;;28.73;19.13;;;;;;;7.90;100.00;102808.91;4999963;28;20054;-77
2023/04/17 07:23:53;;;;;;;29.45;18.83;;;;;;;7.91;100.00;102818.47;4999170;28;20044;-77
2023/04/17 07:26:19;;;;;;;32.05;18.83;;;;;;;7.91;100.00;102808.03;5000310;28;20222;-77
2023/04/17 07:28:44;;;;;;;30.10;18.52;;;;;;;7.94;100.00;102808.06;4989607;28;20058;-77
2023/04/17 07:31:10;;;;;;;36.33;19.25;;;;;;;7.94;100.00;102813.25;5000245;28;20040;-77
2023/04/17 07:33:37;;;;;;;28.33;18.02;;;;;;;7.94;100.00;102811.53;4999242;28;20445;-77
2023/04/17 07:36:03;;;;;;;36.28;19.35;;;;;;;7.95;100.00;102815.00;4999885;28;20044;-77
2023/04/17 07:38:32;;;;;;;36.90;18.20;;;;;;;7.96;100.00;102819.34;4995760;28;20337;-77
2023/04/17 07:40:58;;;;;;;31.75;17.92;;;;;;;7.95;100.00;102815.00;4994068;28;20089;-77
2023/04/17 07:43:24;;;;;;;31.20;19.10;;;;;;;7.96;100.00;102817.59;4986320;28;20255;-77
2023/04/17 07:45:49;;;;;;;28.38;18.05;;;;;;;7.97;100.00;102808.94;4990488;28;20326;-77
2023/04/17 07:48:18;;;;;;;29.17;18.98;;;;;;;8.00;100.00;102811.50;4993982;28;20045;-77
2023/04/17 07:50:44;;;;;;;28.98;18.80;;;;;;;8.03;100.00;102818.50;4994467;28;20313;-77
2023/04/17 07:53:10;;;;;;;30.85;18.85;;;;;;;8.04;100.00;102818.50;4989100;28;20111;-77
2023/04/17 07:55:35;;;;;;;31.80;18.88;;;;;;;8.06;100.00;102814.16;4988486;28;20038;-77
2023/04/17 07:58:02;;;;;;;31.63;19.45;;;;;;;8.05;100.00;102819.38;4990617;28;20325;-77
2023/04/17 08:00:31;;;;;;;27.50;19.13;;;;;;;8.05;100.00;102820.22;4987181;28;20062;-77
2023/04/17 08:02:57;;;;;;;30.42;19.65;;;;;;;8.05;100.00;102827.19;4995176;28;20042;-77
2023/04/17 08:05:22;;;;;;;28.08;18.73;;;;;;;8.05;100.00;102824.59;4993220;28;20448;-77
2023/04/17 08:07:48;;;;;;;32.92;19.08;;;;;;;8.06;100.00;102827.19;4991331;28;20129;-77
2023/04/17 08:10:14;;;;;;;31.70;19.33;;;;;;;8.05;100.00;102820.22;4991759;28;20365;-77
2023/04/17 08:12:40;;;;;;;33.78;19.02;;;;;;;8.07;100.00;102818.50;4988970;28;20440;-77
2023/04/17 08:15:06;;;;;;;35.67;20.42;;;;;;;8.10;100.00;102819.38;4991120;28;20072;-77
2023/04/17 08:17:32;;;;;;;41.63;21.00;;;;;;;8.08;100.00;102820.25;4991651;28;20042;-77
2023/04/17 08:19:57;;;;;;;37.90;20.33;;;;;;;8.08;100.00;102822.00;4994195;28;20113;-77
2023/04/17 08:22:24;;;;;;;34.20;20.52;;;;;;;8.08;100.00;102825.47;4990826;28;20035;-77
2023/04/17 08:24:53;;;;;;;34.95;19.95;;;;;;;8.12;100.00;102834.16;4992512;28;20047;-77
2023/04/17 08:27:19;;;;;;;34.25;20.48;;;;;;;8.14;100.00;102827.22;4998459;28;20034;-77
2023/04/17 08:29:45;;;;;;;35.10;20.40;;;;;;;8.14;100.00;102823.72;4993352;28;20051;-77
2023/04/17 08:32:10;;;;;;;35.33;20.60;;;;;;;8.16;100.00;102822.84;4991239;28;20042;-77
2023/04/17 08:34:36;;;;;;;36.83;20.88;;;;;;;8.19;100.00;102824.63;4998130;28;20046;-77
2023/04/17 08:37:02;;;;;;;37.40;21.40;;;;;;;8.20;100.00;102826.34;4998666;28;20042;-77
2023/04/17 08:39:27;;;;;;;35.22;21.58;;;;;;;8.22;100.00;102824.59;4997225;28;20241;-77
2023/04/17 08:42:01;;;;;;;35.83;21.10;;;;;;;8.24;100.00;102825.47;4976019;28;20285;-77
2023/04/17 08:44:27;;;;;;;40.08;21.88;;;;;;;8.25;100.00;102827.22;4995717;28;20046;-77
2023/04/17 08:46:57;;;;;;;36.47;22.85;;;;;;;8.26;100.00;102823.75;4992128;28;20229;-77
2023/04/17 08:49:23;;;;;;;36.55;20.08;;;;;;;8.27;100.00;102826.34;4996497;28;20042;-77
2023/04/17 08:51:49;;;;;;;37.47;21.88;;;;;;;8.29;100.00;102822.88;4994392;28;20470;-77
2023/04/17 08:54:14;;;;;;;32.97;20.45;;;;;;;8.30;100.00;102828.09;4997159;28;20037;-77
2023/04/17 08:56:40;;;;;;;38.95;21.40;;;;;;;8.31;100.00;102824.59;4973642;28;20047;-77
2023/04/17 08:59:05;;;;;;;36.33;21.17;;;;;;;8.32;100.00;102828.97;4997690;28;20054;-77
2023/04/17 09:01:33;;;;;;;38.67;22.48;;;;;;;8.37;100.00;102834.22;4995301;28;20070;-77
2023/04/17 09:03:59;;;;;;;40.25;20.67;;;;;;;8.37;100.00;102829.84;4997903;28;20341;-77
2023/04/17 09:06:24;;;;;;;40.40;22.05;;;;;;;8.42;100.00;102840.31;4996137;28;20112;-77
2023/04/17 09:08:58;;;;;;;39.38;21.05;;;;;;;8.47;100.00;102841.19;4996338;28;20038;-77
2023/04/17 09:11:24;;;;;;;35.90;20.88;;;;;;;8.52;100.00;102825.53;4988592;28;20065;-77
2023/04/17 09:13:50;;;;;;;36.50;21.58;;;;;;;8.55;100.00;102836.84;4997517;28;20252;-77
2023/04/17 09:16:16;;;;;;;39.75;21.35;;;;;;;8.59;100.00;102833.34;4996464;28;20065;-77
2023/04/17 09:18:42;;;;;;;41.90;21.88;;;;;;;8.61;99.98;102831.59;4997189;28;20046;-77
2023/04/17 09:21:08;;;;;;;36.25;20.77;;;;;;;8.65;99.68;102841.19;4990975;28;20049;-77
2023/04/17 09:23:47;;;;;;;36.30;21.27;;;;;;;8.68;99.10;102836.81;4994915;28;20045;-77
2023/04/17 09:26:13;;;;;;;;;;;;;;;8.68;98.57;102848.16;4989901;28;20038;-77
2023/04/17 09:28:40;;;;;;;35.13;19.48;;;;;;;8.70;98.40;102840.31;4995958;28;20022;-77
2023/04/17 09:31:23;;;;;;;35.70;21.35;;;;;;;8.74;97.92;102852.50;4989269;28;20038;-77
2023/04/17 09:34:02;;;;;;;31.92;19.15;;;;;;;8.76;97.63;102851.63;4997556;28;20061;-77
2023/04/17 09:36:29;;;;;;;33.17;20.27;;;;;;;8.80;97.50;102856.00;4996671;28;20034;-77
2023/04/17 09:38:55;;;;;;;36.65;20.83;;;;;;;8.85;97.03;102848.13;4997087;28;20046;-77
2023/04/17 09:41:27;;;;;;;35.47;19.92;;;;;;;8.86;96.81;102843.75;4995545;28;20042;-77
2023/04/17 09:43:54;;;;;;;35.88;19.83;;;;;;;8.90;96.80;102846.38;4997016;28;20041;-77
2023/04/17 09:46:34;;;;;;;35.00;20.42;;;;;;;8.94;96.50;102853.34;4997403;28;20097;-77
2023/04/17 09:49:06;;;;;;;34.90;20.58;;;;;;;8.99;96.60;102850.72;4995557;28;20284;-77
2023/04/17 09:51:32;;;;;;;39.60;20.15;;;;;;;9.01;96.28;102854.22;4987358;28;20109;-77
2023/04/17 09:53:58;;;;;;;34.83;19.77;;;;;;;9.03;96.43;102855.06;4997645;28;20042;-77
2023/04/17 09:56:25;;;;;;;29.35;19.38;;;;;;;9.06;96.54;102851.56;4995548;28;20109;-77
2023/04/17 09:58:52;;;;;;;31.98;19.77;;;;;;;9.10;96.68;102850.72;4997362;28;20045;-77
2023/04/17 10:01:18;;;;;;;29.67;19.63;;;;;;;9.12;95.90;102860.28;4992331;28;20050;-77
2023/04/17 10:03:44;;;;;;;33.58;19.42;;;;;;;9.16;95.77;102855.91;4996974;28;20046;-77
2023/04/17 10:06:09;;;;;;;29.23;19.52;;;;;;;9.21;95.66;102856.78;4997431;28;20046;-77
2023/04/17 10:08:35;;;;;;;37.63;20.80;;;;;;;9.23;95.51;102862.88;4995537;28;20083;-77
2023/04/17 10:11:06;;;;;;;32.75;19.45;;;;;;;9.26;95.17;102860.25;4990040;28;20049;-77
2023/04/17 10:13:34;;;;;;;32.45;20.27;;;;;;;9.26;94.70;102860.25;4997649;28;20030;-77
2023/04/17 10:15:59;;;;;;;28.10;18.95;;;;;;;9.27;94.77;102859.38;4991393;28;20062;-77
2023/04/17 10:18:26;;;;;;;35.03;19.98;;;;;;;9.29;94.84;102849.75;4996166;28;20117;-77
2023/04/17 10:20:52;;;;;;;36.05;20.80;;;;;;;9.34;94.33;102865.44;4992314;28;20042;-77
2023/04/17 10:23:32;;;;;;;31.55;20.00;;;;;;;9.39;94.33;102861.94;4998213;28;20038;-77
2023/04/17 10:26:28;;;;;;;30.00;18.50;;;;;;;9.47;94.06;102856.69;4997530;28;20279;-77
2023/04/17 10:28:56;;;;;;;31.45;19.52;;;;;;;9.56;94.18;102855.78;5000621;28;20309;-77
2023/04/17 10:31:42;;;;;;;29.83;18.92;;;;;;;9.65;94.43;102850.50;5001092;28;20058;-77
2023/04/17 10:34:37;;;;;;;30.30;19.70;;;;;;;9.77;94.02;102862.66;4999437;28;20046;-77
2023/04/17 10:37:03;;;;;;;28.38;18.90;;;;;;;9.83;92.26;102857.41;5000816;28;20053;-77
2023/04/17 10:39:50;;;;;;;34.25;18.40;;;;;;;9.91;92.35;102855.59;5000286;28;20038;-77
2023/04/17 10:42:20;;;;;;;26.67;16.75;;;;;;;9.99;91.24;102853.81;4992889;28;20242;-77
2023/04/17 10:44:47;;;;;;;29.80;17.80;;;;;;;10.03;90.45;102853.81;5000127;28;20038;-77
2023/04/17 10:47:13;;;;;;;29.35;17.33;;;;;;;10.02;89.06;102847.69;4990260;28;20045;-77
2023/04/17 10:49:52;;;;;;;28.20;16.95;;;;;;;10.03;88.99;102859.03;5000157;28;20042;-77
2023/04/17 10:52:33;;;;;;;28.05;17.23;;;;;;;10.03;89.09;102856.41;5000719;28;20206;-77
2023/04/17 10:55:20;;;;;;;25.15;16.95;;;;;;;10.05;89.55;102845.03;4998498;28;20380;-77
2023/04/17 10:58:03;;;;;;;22.33;15.45;;;;;;;10.12;89.50;102857.22;4993919;28;20273;-77
2023/04/17 11:00:36;;;;;;;26.05;17.80;;;;;;;10.16;87.89;102853.69;4997369;28;20277;-77
2023/04/17 11:03:02;;;;;;;25.20;16.55;;;;;;;10.20;87.96;102849.31;4999349;28;20054;-77
2023/04/17 11:05:30;;;;;;;23.92;15.25;;;;;;;10.26;87.87;102840.53;4998210;28;20034;-77
2023/04/17 11:07:56;;;;;;;23.27;15.98;;;;;;;10.29;87.46;102838.75;4994089;28;20069;-77